createdAt,value
2018-09-23T00:00:01.829Z,0.00
2018-09-23T00:01:01.765Z,0.00
2018-09-23T00:02:54.548Z,0.00
2018-09-23T00:03:54.463Z,0.00
2018-09-23T00:05:47.222Z,0.00
2018-09-23T00:06:47.153Z,0.00
2018-09-23T00:08:39.947Z,0.00
2018-09-23T00:09:39.864Z,0.00
2018-09-23T00:11:32.639Z,0.00
2018-09-23T00:12:32.569Z,0.00
2018-09-23T00:14:25.366Z,0.00
2018-09-23T00:15:25.272Z,0.00
2018-09-23T00:17:18.060Z,0.00
2018-09-23T00:18:17.981Z,0.00
2018-09-23T00:20:10.751Z,0.00
2018-09-23T00:21:10.682Z,0.00
2018-09-23T00:23:03.490Z,0.00
2018-09-23T00:24:03.416Z,0.00
2018-09-23T00:25:56.189Z,0.00
2018-09-23T00:26:56.116Z,0.00
2018-09-23T00:28:48.896Z,0.00
2018-09-23T00:29:48.802Z,0.00
2018-09-23T00:31:41.575Z,0.00
2018-09-23T00:32:41.496Z,0.00
2018-09-23T00:34:34.290Z,0.00
2018-09-23T00:35:34.205Z,0.00
2018-09-23T00:37:27.038Z,0.00
2018-09-23T00:38:26.933Z,0.00
2018-09-23T00:40:19.755Z,0.00
2018-09-23T00:41:19.713Z,0.00
2018-09-23T00:43:12.462Z,0.00
2018-09-23T00:44:12.387Z,0.00
2018-09-23T00:46:05.154Z,0.00
2018-09-23T00:47:05.082Z,0.00
2018-09-23T00:48:57.867Z,0.00
2018-09-23T00:49:57.792Z,0.00
2018-09-23T00:51:50.563Z,0.00
2018-09-23T00:52:50.501Z,0.00
2018-09-23T00:54:43.295Z,0.00
2018-09-23T00:55:43.211Z,0.00
2018-09-23T00:57:35.973Z,0.00
2018-09-23T00:58:35.915Z,0.00
2018-09-23T01:00:28.739Z,0.00
2018-09-23T01:01:28.658Z,0.00
2018-09-23T01:03:21.442Z,0.00
2018-09-23T01:04:21.371Z,0.00
2018-09-23T01:06:14.159Z,0.00
2018-09-23T01:07:14.086Z,0.00
2018-09-23T01:09:06.888Z,0.00
2018-09-23T01:10:06.807Z,0.00
2018-09-23T01:11:59.592Z,0.00
2018-09-23T01:12:59.517Z,0.00
2018-09-23T01:14:52.344Z,0.00
2018-09-23T01:15:52.234Z,0.00
2018-09-23T01:17:44.989Z,0.00
2018-09-23T01:18:44.919Z,0.00
2018-09-23T01:20:37.726Z,0.00
2018-09-23T01:21:37.628Z,0.00
2018-09-23T01:23:30.445Z,0.00
2018-09-23T01:24:30.386Z,0.00
2018-09-23T01:26:23.155Z,0.00
2018-09-23T01:27:23.090Z,0.00
2018-09-23T01:29:15.872Z,0.00
2018-09-23T01:30:15.789Z,0.00
2018-09-23T01:32:08.560Z,0.00
2018-09-23T01:33:08.485Z,0.00
2018-09-23T01:35:01.266Z,0.00
2018-09-23T01:36:01.190Z,0.00
2018-09-23T01:37:53.967Z,0.00
2018-09-23T01:38:53.897Z,0.00
2018-09-23T01:40:46.669Z,0.00
2018-09-23T01:41:46.594Z,0.00
2018-09-23T01:43:39.387Z,0.00
2018-09-23T01:44:39.309Z,0.00
2018-09-23T01:46:32.063Z,0.00
2018-09-23T01:47:32.001Z,0.00
2018-09-23T01:49:24.784Z,0.00
2018-09-23T01:50:24.709Z,0.00
2018-09-23T01:52:17.474Z,0.00
2018-09-23T01:53:17.408Z,0.00
2018-09-23T01:55:10.190Z,0.00
2018-09-23T01:56:10.105Z,0.00
2018-09-23T01:58:02.870Z,0.00
2018-09-23T01:59:02.812Z,0.00
2018-09-23T02:00:55.613Z,0.00
2018-09-23T02:01:55.520Z,0.00
2018-09-23T02:03:48.285Z,0.00
2018-09-23T02:04:48.203Z,0.00
2018-09-23T02:06:40.960Z,0.00
2018-09-23T02:07:40.899Z,0.00
2018-09-23T02:09:33.691Z,0.00
2018-09-23T02:10:33.624Z,0.00
2018-09-23T02:12:26.377Z,0.00
2018-09-23T02:13:26.319Z,0.00
2018-09-23T02:15:19.103Z,0.00
2018-09-23T02:16:19.022Z,0.00
2018-09-23T02:18:11.792Z,0.00
2018-09-23T02:19:11.729Z,0.00
2018-09-23T02:21:04.525Z,0.00
2018-09-23T02:22:04.430Z,0.00
2018-09-23T02:23:57.210Z,0.00
2018-09-23T02:24:57.129Z,0.00
2018-09-23T02:26:50.001Z,0.00
2018-09-23T02:27:49.990Z,0.00
2018-09-23T02:29:43.033Z,0.00
2018-09-23T02:30:42.792Z,0.00
2018-09-23T02:32:35.792Z,0.00
2018-09-23T02:33:35.689Z,0.00
2018-09-23T02:35:28.656Z,0.00
2018-09-23T02:36:28.455Z,0.00
2018-09-23T02:38:21.313Z,0.00
2018-09-23T02:39:21.209Z,0.00
2018-09-23T02:41:14.253Z,0.00
2018-09-23T02:42:14.097Z,0.00
2018-09-23T02:44:07.169Z,0.00
2018-09-23T02:45:06.923Z,0.00
2018-09-23T02:46:59.821Z,0.00
2018-09-23T02:47:59.661Z,0.00
2018-09-23T02:49:52.605Z,0.00
2018-09-23T02:50:52.509Z,0.00
2018-09-23T02:52:45.527Z,0.00
2018-09-23T02:53:45.418Z,0.00
2018-09-23T02:55:38.318Z,0.00
2018-09-23T02:56:38.223Z,0.00
2018-09-23T02:58:30.972Z,0.00
2018-09-23T02:59:30.909Z,0.00
2018-09-23T03:01:23.887Z,0.00
2018-09-23T03:02:23.718Z,0.00
2018-09-23T03:04:16.629Z,0.00
2018-09-23T03:05:16.607Z,0.00
2018-09-23T03:07:09.389Z,0.00
2018-09-23T03:08:09.379Z,0.00
2018-09-23T03:10:02.344Z,0.00
2018-09-23T03:11:02.141Z,0.00
2018-09-23T03:12:54.954Z,0.00
2018-09-23T03:13:54.915Z,0.00
2018-09-23T03:15:47.913Z,0.00
2018-09-23T03:16:47.682Z,0.00
2018-09-23T03:18:40.663Z,0.00
2018-09-23T03:19:40.451Z,0.00
2018-09-23T03:21:33.369Z,0.00
2018-09-23T03:22:33.299Z,0.00
2018-09-23T03:24:26.200Z,0.00
2018-09-23T03:25:26.139Z,0.00
2018-09-23T03:27:18.819Z,0.00
2018-09-23T03:28:18.752Z,0.00
2018-09-23T03:30:11.539Z,0.00
2018-09-23T03:31:11.468Z,0.00
2018-09-23T03:33:04.229Z,0.00
2018-09-23T03:34:04.153Z,0.00
2018-09-23T03:35:56.954Z,0.00
2018-09-23T03:36:56.875Z,0.00
2018-09-23T03:38:49.665Z,0.00
2018-09-23T03:39:49.582Z,0.00
2018-09-23T03:41:42.379Z,0.00
2018-09-23T03:42:42.285Z,0.00
2018-09-23T03:44:35.063Z,0.00
2018-09-23T03:45:34.981Z,0.00
2018-09-23T03:47:27.772Z,0.00
2018-09-23T03:48:27.699Z,0.00
2018-09-23T03:50:20.497Z,0.00
2018-09-23T03:51:20.417Z,0.00
2018-09-23T03:53:13.180Z,0.00
2018-09-23T03:54:13.123Z,0.00
2018-09-23T03:56:05.895Z,0.00
2018-09-23T03:57:05.814Z,0.00
2018-09-23T03:58:58.633Z,0.00
2018-09-23T03:59:58.552Z,0.00
2018-09-23T04:01:51.326Z,0.00
2018-09-23T04:02:51.242Z,0.00
2018-09-23T04:04:44.064Z,0.00
2018-09-23T04:05:43.982Z,0.00
2018-09-23T04:07:36.762Z,0.00
2018-09-23T04:08:36.687Z,0.00
2018-09-23T04:10:29.467Z,0.00
2018-09-23T04:11:29.380Z,0.00
2018-09-23T04:13:22.162Z,0.00
2018-09-23T04:14:22.096Z,0.00
2018-09-23T04:16:14.873Z,0.00
2018-09-23T04:17:14.803Z,0.00
2018-09-23T04:19:07.570Z,0.00
2018-09-23T04:20:07.514Z,0.00
2018-09-23T04:22:00.286Z,0.00
2018-09-23T04:23:00.206Z,0.00
2018-09-23T04:24:52.987Z,0.00
2018-09-23T04:25:52.915Z,0.00
2018-09-23T04:27:45.687Z,0.00
2018-09-23T04:28:45.606Z,0.00
2018-09-23T04:30:38.390Z,4.00
2018-09-23T04:31:38.363Z,0.00
2018-09-23T04:33:31.080Z,0.00
2018-09-23T04:34:31.013Z,4.00
2018-09-23T04:36:23.786Z,0.00
2018-09-23T04:37:23.713Z,4.00
2018-09-23T04:39:16.475Z,4.00
2018-09-23T04:40:16.409Z,4.00
2018-09-23T04:42:09.278Z,4.00
2018-09-23T04:43:09.128Z,8.00
2018-09-23T04:45:02.036Z,8.00
2018-09-23T04:46:01.843Z,12.00
2018-09-23T04:47:54.621Z,8.00
2018-09-23T04:48:54.542Z,12.00
2018-09-23T04:50:47.359Z,12.00
2018-09-23T04:51:47.271Z,16.00
2018-09-23T04:53:40.053Z,20.00
2018-09-23T04:54:39.963Z,20.00
2018-09-23T04:56:32.741Z,24.00
2018-09-23T04:57:32.678Z,24.00
2018-09-23T04:59:25.442Z,28.00
2018-09-23T05:00:25.356Z,32.00
2018-09-23T05:02:18.164Z,32.00
2018-09-23T05:03:18.073Z,32.00
2018-09-23T05:05:10.875Z,36.00
2018-09-23T05:06:10.774Z,40.00
2018-09-23T05:08:03.604Z,52.00
2018-09-23T05:09:03.485Z,60.00
2018-09-23T05:10:56.252Z,72.00
2018-09-23T05:11:56.176Z,84.00
2018-09-23T05:13:48.967Z,84.00
2018-09-23T05:14:48.907Z,80.00
2018-09-23T05:16:41.707Z,80.00
2018-09-23T05:17:41.607Z,72.00
2018-09-23T05:19:34.392Z,64.00
2018-09-23T05:20:34.308Z,68.00
2018-09-23T05:22:27.112Z,76.00
2018-09-23T05:23:27.040Z,80.00
2018-09-23T05:25:19.819Z,92.00
2018-09-23T05:26:19.750Z,100.00
2018-09-23T05:28:12.528Z,96.00
2018-09-23T05:29:12.442Z,104.00
2018-09-23T05:31:05.296Z,108.00
2018-09-23T05:32:05.137Z,116.00
2018-09-23T05:33:57.982Z,128.00
2018-09-23T05:34:57.918Z,144.00
2018-09-23T05:36:50.720Z,148.00
2018-09-23T05:37:50.617Z,156.00
2018-09-23T05:39:43.448Z,160.00
2018-09-23T05:40:43.364Z,156.00
2018-09-23T05:42:36.150Z,152.00
2018-09-23T05:43:36.080Z,156.00
2018-09-23T05:45:28.914Z,168.00
2018-09-23T05:46:28.837Z,176.00
2018-09-23T05:48:21.620Z,204.00
2018-09-23T05:49:21.544Z,212.00
2018-09-23T05:51:14.324Z,228.00
2018-09-23T05:52:14.231Z,220.00
2018-09-23T05:54:07.032Z,212.00
2018-09-23T05:55:06.975Z,228.00
2018-09-23T05:56:59.823Z,260.00
2018-09-23T05:57:59.751Z,276.00
2018-09-23T05:59:52.617Z,288.00
2018-09-23T06:00:52.425Z,308.00
2018-09-23T06:02:45.295Z,352.00
2018-09-23T06:03:45.150Z,404.00
2018-09-23T06:05:37.947Z,464.00
2018-09-23T06:06:37.882Z,452.00
2018-09-23T06:08:30.808Z,412.00
2018-09-23T06:09:30.616Z,348.00
2018-09-23T06:11:23.426Z,292.00
2018-09-23T06:12:23.344Z,280.00
2018-09-23T06:14:16.132Z,292.00
2018-09-23T06:15:16.070Z,296.00
2018-09-23T06:17:08.848Z,304.00
2018-09-23T06:18:08.769Z,320.00
2018-09-23T06:20:01.594Z,360.00
2018-09-23T06:21:01.517Z,376.00
2018-09-23T06:22:54.307Z,380.00
2018-09-23T06:23:54.224Z,388.00
2018-09-23T06:25:47.264Z,384.00
2018-09-23T06:26:47.201Z,392.00
2018-09-23T06:28:39.991Z,424.00
2018-09-23T06:29:39.921Z,460.00
2018-09-23T06:31:32.782Z,556.00
2018-09-23T06:32:32.638Z,620.00
2018-09-23T06:34:25.390Z,696.00
2018-09-23T06:35:25.337Z,744.00
2018-09-23T06:37:18.129Z,888.00
2018-09-23T06:38:18.031Z,860.00
2018-09-23T06:40:10.818Z,888.00
2018-09-23T06:41:10.758Z,696.00
2018-09-23T06:43:03.680Z,532.00
2018-09-23T06:44:03.472Z,504.00
2018-09-23T06:45:56.293Z,552.00
2018-09-23T06:46:56.223Z,508.00
2018-09-23T06:48:49.079Z,580.00
2018-09-23T06:49:48.927Z,632.00
2018-09-23T06:51:41.709Z,720.00
2018-09-23T06:52:41.638Z,720.00
2018-09-23T06:54:34.431Z,776.00
2018-09-23T06:55:34.394Z,796.00
2018-09-23T06:57:27.167Z,780.00
2018-09-23T06:58:27.082Z,816.00
2018-09-23T07:00:19.865Z,864.00
2018-09-23T07:01:19.807Z,840.00
2018-09-23T07:03:12.625Z,732.00
2018-09-23T07:04:12.547Z,692.00
2018-09-23T07:06:05.331Z,580.00
2018-09-23T07:07:05.260Z,532.00
2018-09-23T07:08:58.056Z,536.00
2018-09-23T07:09:57.950Z,568.00
2018-09-23T07:11:50.763Z,648.00
2018-09-23T07:12:50.683Z,692.00
2018-09-23T07:14:43.477Z,844.00
2018-09-23T07:15:43.423Z,912.00
2018-09-23T07:17:36.219Z,980.00
2018-09-23T07:18:36.133Z,1064.00
2018-09-23T07:20:28.975Z,1104.00
2018-09-23T07:21:28.891Z,1208.00
2018-09-23T07:23:21.670Z,1048.00
2018-09-23T07:24:21.672Z,948.00
2018-09-23T07:26:14.403Z,992.00
2018-09-23T07:27:14.309Z,1148.00
2018-09-23T07:29:07.127Z,1392.00
2018-09-23T07:30:07.208Z,2144.00
2018-09-23T07:31:59.837Z,1484.00
2018-09-23T07:32:59.749Z,1396.00
2018-09-23T07:34:52.546Z,1356.00
2018-09-23T07:35:52.472Z,2856.00
2018-09-23T07:37:45.258Z,1584.00
2018-09-23T07:38:45.177Z,1504.00
2018-09-23T07:40:38.000Z,1708.00
2018-09-23T07:41:37.947Z,1628.00
2018-09-23T07:43:30.777Z,1484.00
2018-09-23T07:44:30.675Z,1348.00
2018-09-23T07:46:23.506Z,1324.00
2018-09-23T07:47:23.451Z,1292.00
2018-09-23T07:49:16.358Z,1428.00
2018-09-23T07:50:16.242Z,1468.00
2018-09-23T07:52:09.173Z,1464.00
2018-09-23T07:53:09.048Z,1352.00
2018-09-23T07:55:01.983Z,1332.00
2018-09-23T07:56:01.904Z,1384.00
2018-09-23T07:57:54.756Z,1836.00
2018-09-23T07:58:54.648Z,1352.00
2018-09-23T08:00:47.529Z,1188.00
2018-09-23T08:01:47.456Z,1492.00
2018-09-23T08:03:40.257Z,1340.00
2018-09-23T08:04:40.169Z,1828.00
2018-09-23T08:06:32.945Z,1656.00
2018-09-23T08:07:32.879Z,1556.00
2018-09-23T08:09:25.677Z,1352.00
2018-09-23T08:10:25.598Z,1260.00
2018-09-23T08:12:18.462Z,1456.00
2018-09-23T08:13:18.394Z,1264.00
2018-09-23T08:15:11.122Z,1276.00
2018-09-23T08:16:11.082Z,1268.00
2018-09-23T08:18:03.871Z,1136.00
2018-09-23T08:19:03.769Z,1120.00
2018-09-23T08:20:56.621Z,1088.00
2018-09-23T08:21:56.469Z,1100.00
2018-09-23T08:23:49.338Z,1092.00
2018-09-23T08:24:49.241Z,1124.00
2018-09-23T08:26:42.022Z,1144.00
2018-09-23T08:27:41.969Z,1144.00
2018-09-23T08:29:34.754Z,1136.00
2018-09-23T08:30:34.685Z,1108.00
2018-09-23T08:32:27.511Z,1056.00
2018-09-23T08:33:27.388Z,1032.00
2018-09-23T08:35:20.189Z,1004.00
2018-09-23T08:36:20.126Z,968.00
2018-09-23T08:38:12.914Z,924.00
2018-09-23T08:39:12.851Z,868.00
2018-09-23T08:41:05.638Z,912.00
2018-09-23T08:42:05.564Z,1020.00
2018-09-23T08:43:58.362Z,1144.00
2018-09-23T08:44:58.278Z,1148.00
2018-09-23T08:46:51.064Z,1104.00
2018-09-23T08:47:51.060Z,1080.00
2018-09-23T08:49:43.821Z,1056.00
2018-09-23T08:50:43.731Z,1072.00
2018-09-23T08:52:36.527Z,1028.00
2018-09-23T08:53:36.439Z,936.00
2018-09-23T08:55:29.239Z,848.00
2018-09-23T08:56:29.166Z,860.00
2018-09-23T08:58:21.967Z,956.00
2018-09-23T08:59:21.891Z,1040.00
2018-09-23T09:01:14.677Z,1172.00
2018-09-23T09:02:14.613Z,1060.00
2018-09-23T09:04:07.418Z,1016.00
2018-09-23T09:05:07.344Z,1044.00
2018-09-23T09:07:00.133Z,1068.00
2018-09-23T09:08:00.067Z,1084.00
2018-09-23T09:09:52.836Z,1116.00
2018-09-23T09:10:52.795Z,1088.00
2018-09-23T09:12:45.697Z,1032.00
2018-09-23T09:13:45.573Z,1016.00
2018-09-23T09:15:38.440Z,1028.00
2018-09-23T09:16:38.377Z,1028.00
2018-09-23T09:18:31.189Z,1048.00
2018-09-23T09:19:31.097Z,1028.00
2018-09-23T09:21:23.938Z,992.00
2018-09-23T09:22:23.863Z,992.00
2018-09-23T09:24:16.661Z,1024.00
2018-09-23T09:25:16.585Z,1024.00
2018-09-23T09:27:09.474Z,1004.00
2018-09-23T09:28:09.322Z,1008.00
2018-09-23T09:30:02.183Z,1016.00
2018-09-23T09:31:02.177Z,1028.00
2018-09-23T09:32:54.920Z,1036.00
2018-09-23T09:33:54.841Z,1028.00
2018-09-23T09:35:47.622Z,1008.00
2018-09-23T09:36:47.543Z,1008.00
2018-09-23T09:38:40.345Z,984.00
2018-09-23T09:39:40.261Z,944.00
2018-09-23T09:41:33.126Z,900.00
2018-09-23T09:42:33.018Z,872.00
2018-09-23T09:44:25.827Z,876.00
2018-09-23T09:45:25.754Z,924.00
2018-09-23T09:47:18.523Z,1048.00
2018-09-23T09:48:18.460Z,1112.00
2018-09-23T09:50:11.254Z,1080.00
2018-09-23T09:51:11.189Z,1064.00
2018-09-23T09:53:03.998Z,1052.00
2018-09-23T09:54:03.884Z,1096.00
2018-09-23T09:55:56.699Z,1192.00
2018-09-23T09:56:56.605Z,1208.00
2018-09-23T09:58:49.403Z,1232.00
2018-09-23T09:59:49.337Z,1256.00
2018-09-23T10:01:42.080Z,1252.00
2018-09-23T10:02:42.019Z,1236.00
2018-09-23T10:04:34.823Z,1232.00
2018-09-23T10:05:34.745Z,1220.00
2018-09-23T10:07:27.562Z,1172.00
2018-09-23T10:08:27.497Z,1180.00
2018-09-23T10:10:20.295Z,1248.00
2018-09-23T10:11:20.259Z,1276.00
2018-09-23T10:13:13.068Z,1460.00
2018-09-23T10:14:12.956Z,1356.00
2018-09-23T10:16:05.781Z,1380.00
2018-09-23T10:17:05.712Z,1388.00
2018-09-23T10:18:58.493Z,1424.00
2018-09-23T10:19:58.416Z,1592.00
2018-09-23T10:21:51.221Z,1560.00
2018-09-23T10:22:51.195Z,1596.00
2018-09-23T10:24:43.933Z,1584.00
2018-09-23T10:25:44.926Z,1532.00
2018-09-23T10:27:36.851Z,1496.00
2018-09-23T10:28:36.538Z,1496.00
2018-09-23T10:30:29.363Z,1412.00
2018-09-23T10:31:29.355Z,1364.00
2018-09-23T10:33:22.057Z,1316.00
2018-09-23T10:34:21.992Z,1308.00
2018-09-23T10:36:14.838Z,1308.00
2018-09-23T10:37:14.727Z,1312.00
2018-09-23T10:39:07.535Z,1284.00
2018-09-23T10:40:07.456Z,1276.00
2018-09-23T10:42:00.241Z,1300.00
2018-09-23T10:43:00.167Z,1320.00
2018-09-23T10:44:53.003Z,1344.00
2018-09-23T10:45:52.973Z,1284.00
2018-09-23T10:47:45.699Z,1216.00
2018-09-23T10:48:45.622Z,1144.00
2018-09-23T10:50:38.444Z,1020.00
2018-09-23T10:51:38.370Z,988.00
2018-09-23T10:53:31.129Z,856.00
2018-09-23T10:54:31.058Z,808.00
2018-09-23T10:56:23.885Z,820.00
2018-09-23T10:57:23.807Z,848.00
2018-09-23T10:59:16.704Z,880.00
2018-09-23T11:00:16.617Z,852.00
2018-09-23T11:02:09.395Z,704.00
2018-09-23T11:03:09.324Z,668.00
2018-09-23T11:05:02.121Z,664.00
2018-09-23T11:06:02.051Z,676.00
2018-09-23T11:07:54.813Z,684.00
2018-09-23T11:08:54.755Z,664.00
2018-09-23T11:10:47.612Z,640.00
2018-09-23T11:11:47.541Z,644.00
2018-09-23T11:13:40.318Z,616.00
2018-09-23T11:14:40.267Z,632.00
2018-09-23T11:16:33.078Z,728.00
2018-09-23T11:17:32.957Z,744.00
2018-09-23T11:19:25.755Z,700.00
2018-09-23T11:20:25.678Z,676.00
2018-09-23T11:22:18.466Z,712.00
2018-09-23T11:23:18.464Z,756.00
2018-09-23T11:25:11.204Z,760.00
2018-09-23T11:26:11.130Z,744.00
2018-09-23T11:28:03.919Z,724.00
2018-09-23T11:29:03.853Z,708.00
2018-09-23T11:30:56.719Z,656.00
2018-09-23T11:31:56.632Z,632.00
2018-09-23T11:33:49.417Z,596.00
2018-09-23T11:34:49.359Z,596.00
2018-09-23T11:36:42.143Z,616.00
2018-09-23T11:37:42.079Z,648.00
2018-09-23T11:39:34.849Z,788.00
2018-09-23T11:40:34.781Z,816.00
2018-09-23T11:42:27.623Z,828.00
2018-09-23T11:43:27.567Z,792.00
2018-09-23T11:45:20.340Z,728.00
2018-09-23T11:46:20.277Z,704.00
2018-09-23T11:48:13.076Z,632.00
2018-09-23T11:49:12.987Z,568.00
2018-09-23T11:51:05.789Z,492.00
2018-09-23T11:52:05.710Z,460.00
2018-09-23T11:53:58.511Z,416.00
2018-09-23T11:54:58.472Z,384.00
2018-09-23T11:56:51.218Z,372.00
2018-09-23T11:57:51.133Z,368.00
2018-09-23T11:59:43.934Z,376.00
2018-09-23T12:00:43.864Z,396.00
2018-09-23T12:02:36.653Z,424.00
2018-09-23T12:03:36.564Z,424.00
2018-09-23T12:05:29.450Z,400.00
2018-09-23T12:06:29.382Z,384.00
2018-09-23T12:08:22.163Z,384.00
2018-09-23T12:09:22.106Z,380.00
2018-09-23T12:11:14.908Z,356.00
2018-09-23T12:12:14.838Z,336.00
2018-09-23T12:14:07.654Z,292.00
2018-09-23T12:15:07.622Z,284.00
2018-09-23T12:17:00.443Z,312.00
2018-09-23T12:18:00.334Z,332.00
2018-09-23T12:19:53.133Z,308.00
2018-09-23T12:20:53.100Z,280.00
2018-09-23T12:22:45.953Z,296.00
2018-09-23T12:23:45.873Z,324.00
2018-09-23T12:25:38.822Z,356.00
2018-09-23T12:26:38.661Z,340.00
2018-09-23T12:28:31.437Z,296.00
2018-09-23T12:29:31.427Z,272.00
2018-09-23T12:31:24.661Z,236.00
2018-09-23T12:32:24.596Z,224.00
2018-09-23T12:34:17.370Z,204.00
2018-09-23T12:35:17.291Z,200.00
2018-09-23T12:37:10.108Z,200.00
2018-09-23T12:38:10.027Z,192.00
2018-09-23T12:40:02.847Z,184.00
2018-09-23T12:41:02.732Z,184.00
2018-09-23T12:42:55.599Z,184.00
2018-09-23T12:43:55.521Z,188.00
2018-09-23T12:45:48.336Z,184.00
2018-09-23T12:46:48.267Z,184.00
2018-09-23T12:48:41.094Z,172.00
2018-09-23T12:49:41.018Z,164.00
2018-09-23T12:51:33.807Z,156.00
2018-09-23T12:52:33.743Z,156.00
2018-09-23T12:54:26.510Z,156.00
2018-09-23T12:55:26.455Z,156.00
2018-09-23T12:57:19.216Z,156.00
2018-09-23T12:58:19.180Z,156.00
2018-09-23T13:00:12.099Z,152.00
2018-09-23T13:01:11.959Z,152.00
2018-09-23T13:03:04.763Z,152.00
2018-09-23T13:04:04.679Z,148.00
2018-09-23T13:05:57.671Z,148.00
2018-09-23T13:06:57.397Z,144.00
2018-09-23T13:08:50.196Z,144.00
2018-09-23T13:09:50.122Z,144.00
2018-09-23T13:11:42.972Z,148.00
2018-09-23T13:12:42.893Z,144.00
2018-09-23T13:14:35.933Z,144.00
2018-09-23T13:15:35.701Z,136.00
2018-09-23T13:17:28.541Z,132.00
2018-09-23T13:18:28.399Z,132.00
2018-09-23T13:20:21.247Z,120.00
2018-09-23T13:21:21.190Z,120.00
2018-09-23T13:23:14.012Z,112.00
2018-09-23T13:24:13.895Z,104.00
2018-09-23T13:26:06.725Z,100.00
2018-09-23T13:27:06.637Z,104.00
2018-09-23T13:28:59.517Z,100.00
2018-09-23T13:29:59.384Z,96.00
2018-09-23T13:31:52.217Z,100.00
2018-09-23T13:32:52.109Z,100.00
2018-09-23T13:34:45.283Z,100.00
2018-09-23T13:35:44.825Z,100.00
2018-09-23T13:37:37.643Z,96.00
2018-09-23T13:38:37.555Z,96.00
2018-09-23T13:40:30.393Z,96.00
2018-09-23T13:41:30.327Z,96.00
2018-09-23T13:43:23.128Z,100.00
2018-09-23T13:44:23.069Z,96.00
2018-09-23T13:46:15.870Z,100.00
2018-09-23T13:47:15.769Z,100.00
2018-09-23T13:49:08.609Z,96.00
2018-09-23T13:50:08.528Z,96.00
2018-09-23T13:52:01.397Z,104.00
2018-09-23T13:53:01.280Z,112.00
2018-09-23T13:54:54.642Z,108.00
2018-09-23T13:55:53.998Z,108.00
2018-09-23T13:57:46.761Z,104.00
2018-09-23T13:58:46.675Z,108.00
2018-09-23T14:00:39.477Z,112.00
2018-09-23T14:01:39.377Z,108.00
2018-09-23T14:03:32.212Z,100.00
2018-09-23T14:04:32.118Z,92.00
2018-09-23T14:06:25.917Z,88.00
2018-09-23T14:07:24.890Z,88.00
2018-09-23T14:09:17.658Z,104.00
2018-09-23T14:12:10.443Z,124.00
2018-09-23T14:13:10.317Z,128.00
2018-09-23T14:15:03.124Z,140.00
2018-09-23T14:16:03.053Z,144.00
2018-09-23T14:17:55.901Z,156.00
2018-09-23T14:18:55.797Z,164.00
2018-09-23T14:20:48.618Z,184.00
2018-09-23T14:21:48.545Z,196.00
2018-09-23T14:23:41.321Z,212.00
2018-09-23T14:24:41.230Z,196.00
2018-09-23T14:26:34.085Z,164.00
2018-09-23T14:27:33.949Z,160.00
2018-09-23T14:29:26.731Z,180.00
2018-09-23T14:30:26.672Z,196.00
2018-09-23T14:32:19.696Z,192.00
2018-09-23T14:33:19.344Z,172.00
2018-09-23T14:35:12.286Z,116.00
2018-09-23T14:36:12.221Z,96.00
2018-09-23T14:38:04.917Z,80.00
2018-09-23T14:39:04.840Z,72.00
2018-09-23T14:40:57.639Z,60.00
2018-09-23T14:41:57.564Z,56.00
2018-09-23T14:43:50.326Z,60.00
2018-09-23T14:44:50.250Z,60.00
2018-09-23T14:46:43.189Z,56.00
2018-09-23T14:47:43.097Z,52.00
2018-09-23T14:49:35.825Z,52.00
2018-09-23T14:50:35.734Z,48.00
2018-09-23T14:52:28.517Z,44.00
2018-09-23T14:53:28.446Z,44.00
2018-09-23T14:55:21.233Z,44.00
2018-09-23T14:56:21.157Z,44.00
2018-09-23T14:58:14.121Z,44.00
2018-09-23T14:59:13.976Z,48.00
2018-09-23T15:01:06.681Z,48.00
2018-09-23T15:02:06.599Z,44.00
2018-09-23T15:03:59.428Z,40.00
2018-09-23T15:04:59.351Z,44.00
2018-09-23T15:06:52.201Z,48.00
2018-09-23T15:07:52.124Z,48.00
2018-09-23T15:09:45.173Z,60.00
2018-09-23T15:10:44.980Z,60.00
2018-09-23T15:12:37.622Z,64.00
2018-09-23T15:13:37.548Z,68.00
2018-09-23T15:15:30.407Z,68.00
2018-09-23T15:16:30.356Z,72.00
2018-09-23T15:18:23.302Z,68.00
2018-09-23T15:19:23.217Z,64.00
2018-09-23T15:21:15.872Z,56.00
2018-09-23T15:22:15.848Z,56.00
2018-09-23T15:24:08.637Z,60.00
2018-09-23T15:25:08.555Z,64.00
2018-09-23T15:27:01.346Z,64.00
2018-09-23T15:28:01.277Z,68.00
2018-09-23T15:29:54.411Z,64.00
2018-09-23T15:30:54.060Z,64.00
2018-09-23T15:32:46.826Z,64.00
2018-09-23T15:33:46.711Z,68.00
2018-09-23T15:35:39.543Z,68.00
2018-09-23T15:36:39.440Z,64.00
2018-09-23T15:38:32.211Z,56.00
2018-09-23T15:39:32.130Z,56.00
2018-09-23T15:41:24.894Z,52.00
2018-09-23T15:42:24.860Z,52.00
2018-09-23T15:44:17.648Z,48.00
2018-09-23T15:45:17.553Z,44.00
2018-09-23T15:47:10.320Z,44.00
2018-09-23T15:48:10.250Z,36.00
2018-09-23T15:50:03.086Z,36.00
2018-09-23T15:51:03.011Z,36.00
2018-09-23T15:52:55.813Z,36.00
2018-09-23T15:53:55.714Z,36.00
2018-09-23T15:55:48.490Z,40.00
2018-09-23T15:56:48.502Z,44.00
2018-09-23T15:58:41.205Z,48.00
2018-09-23T15:59:41.134Z,48.00
2018-09-23T16:01:33.908Z,52.00
2018-09-23T16:02:33.861Z,52.00
2018-09-23T16:04:26.921Z,56.00
2018-09-23T16:05:26.601Z,56.00
2018-09-23T16:07:19.371Z,60.00
2018-09-23T16:08:19.304Z,56.00
2018-09-23T16:10:12.083Z,52.00
2018-09-23T16:11:12.009Z,52.00
2018-09-23T16:13:04.804Z,56.00
2018-09-23T16:14:04.712Z,60.00
2018-09-23T16:15:57.504Z,60.00
2018-09-23T16:16:57.420Z,52.00
2018-09-23T16:18:50.375Z,36.00
2018-09-23T16:19:50.159Z,32.00
2018-09-23T16:21:42.949Z,28.00
2018-09-23T16:22:42.895Z,28.00
2018-09-23T16:24:35.719Z,28.00
2018-09-23T16:25:35.729Z,24.00
2018-09-23T16:27:28.427Z,24.00
2018-09-23T16:28:28.366Z,24.00
2018-09-23T16:30:21.226Z,24.00
2018-09-23T16:31:21.144Z,20.00
2018-09-23T16:33:13.935Z,20.00
2018-09-23T16:34:13.858Z,20.00
2018-09-23T16:36:06.622Z,24.00
2018-09-23T16:37:06.549Z,24.00
2018-09-23T16:38:59.360Z,20.00
2018-09-23T16:39:59.283Z,16.00
2018-09-23T16:41:52.035Z,16.00
2018-09-23T16:42:51.969Z,16.00
2018-09-23T16:44:44.751Z,24.00
2018-09-23T16:45:44.662Z,28.00
2018-09-23T16:47:37.481Z,40.00
2018-09-23T16:48:37.370Z,36.00
2018-09-23T16:50:30.203Z,24.00
2018-09-23T16:51:30.134Z,20.00
2018-09-23T16:53:22.929Z,20.00
2018-09-23T16:54:22.892Z,16.00
2018-09-23T16:56:15.607Z,12.00
2018-09-23T16:57:15.538Z,12.00
2018-09-23T16:59:08.315Z,8.00
2018-09-23T17:00:08.243Z,8.00
2018-09-23T17:02:00.995Z,8.00
2018-09-23T17:03:00.929Z,8.00
2018-09-23T17:04:53.788Z,4.00
2018-09-23T17:05:53.697Z,4.00
2018-09-23T17:07:46.516Z,4.00
2018-09-23T17:08:46.409Z,0.00
2018-09-23T17:10:39.201Z,0.00
2018-09-23T17:11:39.111Z,0.00
2018-09-23T17:13:32.407Z,0.00
2018-09-23T17:14:32.331Z,0.00
2018-09-23T17:16:25.238Z,0.00
2018-09-23T17:17:25.137Z,0.00
2018-09-23T17:19:17.916Z,0.00
2018-09-23T17:20:17.836Z,0.00
2018-09-23T17:22:10.613Z,0.00
2018-09-23T17:23:10.541Z,0.00
2018-09-23T17:25:03.358Z,0.00
2018-09-23T17:26:03.285Z,0.00
2018-09-23T17:27:56.043Z,0.00
2018-09-23T17:28:55.985Z,0.00
2018-09-23T17:30:48.820Z,0.00
2018-09-23T17:31:48.738Z,0.00
2018-09-23T17:33:41.504Z,0.00
2018-09-23T17:34:41.443Z,0.00
2018-09-23T17:36:34.233Z,0.00
2018-09-23T17:37:34.134Z,0.00
2018-09-23T17:39:26.917Z,0.00
2018-09-23T17:40:26.830Z,0.00
2018-09-23T17:42:19.597Z,0.00
2018-09-23T17:43:19.524Z,0.00
2018-09-23T17:45:12.321Z,0.00
2018-09-23T17:46:12.233Z,0.00
2018-09-23T17:48:05.037Z,0.00
2018-09-23T17:49:04.969Z,0.00
2018-09-23T17:50:57.786Z,0.00
2018-09-23T17:51:57.698Z,0.00
2018-09-23T17:53:50.464Z,0.00
2018-09-23T17:54:50.395Z,0.00
2018-09-23T17:56:43.179Z,0.00
2018-09-23T17:57:43.099Z,0.00
2018-09-23T17:59:36.026Z,0.00
2018-09-23T18:00:35.950Z,0.00
2018-09-23T18:02:28.699Z,0.00
2018-09-23T18:03:28.633Z,0.00
2018-09-23T18:05:21.413Z,0.00
2018-09-23T18:06:21.429Z,0.00
2018-09-23T18:08:14.109Z,0.00
2018-09-23T18:09:14.032Z,0.00
2018-09-23T18:11:06.815Z,0.00
2018-09-23T18:12:06.727Z,0.00
2018-09-23T18:13:59.566Z,0.00
2018-09-23T18:14:59.563Z,0.00
2018-09-23T18:16:52.302Z,0.00
2018-09-23T18:17:52.211Z,0.00
2018-09-23T18:19:45.000Z,0.00
2018-09-23T18:20:44.911Z,0.00